sensor_id;sensor_type;location;lat;lon;timestamp;P1;durP1;ratioP1;P2;durP2;ratioP2
25609;SDS011;13479;49.044;8.716;2024-03-02T05:02:44;11.40;;;6.20;;
25609;SDS011;13479;49.044;8.716;2024-03-02T05:05:09;13.85;;;8.20;;
25609;SDS011;13479;49.044;8.716;2024-03-02T05:07:35;17.35;;;9.30;;
25609;SDS011;13479;49.044;8.716;2024-03-02T05:10:00;12.90;;;8.05;;
25609;SDS011;13479;49.044;8.716;2024-03-02T05:12:25;13.77;;;8.20;;
25609;SDS011;13479;49.044;8.716;2024-03-02T05:15:09;14.83;;;8.47;;
25609;SDS011;13479;49.044;8.716;2024-03-02T05:17:35;15.40;;;8.40;;
25609;SDS011;13479;49.044;8.716;2024-03-02T05:20:01;14.48;;;8.00;;
25609;SDS011;13479;49.044;8.716;2024-03-02T05:22:27;13.80;;;7.40;;
25609;SDS011;13479;49.044;8.716;2024-03-02T05:24:52;13.90;;;7.67;;
25609;SDS011;13479;49.044;8.716;2024-03-02T05:27:17;14.17;;;7.83;;
25609;SDS011;13479;49.044;8.716;2024-03-02T05:29:43;11.67;;;5.93;;
25609;SDS011;13479;49.044;8.716;2024-03-02T05:32:08;14.37;;;7.80;;
25609;SDS011;13479;49.044;8.716;2024-03-02T05:34:33;14.00;;;8.25;;
25609;SDS011;13479;49.044;8.716;2024-03-02T05:37:00;15.50;;;9.00;;
25609;SDS011;13479;49.044;8.716;2024-03-02T05:39:26;16.10;;;9.07;;
25609;SDS011;13479;49.044;8.716;2024-03-02T05:41:51;18.37;;;9.80;;
25609;SDS011;13479;49.044;8.716;2024-03-02T05:44:16;17.37;;;8.60;;
25609;SDS011;13479;49.044;8.716;2024-03-02T05:46:42;16.67;;;8.88;;
25609;SDS011;13479;49.044;8.716;2024-03-02T05:49:08;16.75;;;8.73;;
25609;SDS011;13479;49.044;8.716;2024-03-02T05:51:33;18.60;;;9.00;;
25609;SDS011;13479;49.044;8.716;2024-03-02T05:53:58;15.80;;;8.33;;
25609;SDS011;13479;49.044;8.716;2024-03-02T05:56:23;16.63;;;9.20;;
25609;SDS011;13479;49.044;8.716;2024-03-02T05:58:49;18.73;;;9.20;;
25609;SDS011;13479;49.044;8.716;2024-03-02T06:01:34;17.67;;;10.00;;
25609;SDS011;13479;49.044;8.716;2024-03-02T06:03:59;19.13;;;9.67;;
25609;SDS011;13479;49.044;8.716;2024-03-02T06:06:24;20.33;;;9.80;;
25609;SDS011;13479;49.044;8.716;2024-03-02T06:08:50;19.37;;;9.27;;
25609;SDS011;13479;49.044;8.716;2024-03-02T06:11:16;18.00;;;9.37;;
25609;SDS011;13479;49.044;8.716;2024-03-02T06:13:41;18.50;;;10.20;;
25609;SDS011;13479;49.044;8.716;2024-03-02T06:16:06;18.33;;;10.60;;
25609;SDS011;13479;49.044;8.716;2024-03-02T06:18:33;17.50;;;9.60;;
25609;SDS011;13479;49.044;8.716;2024-03-02T06:20:58;15.30;;;8.27;;
25609;SDS011;13479;49.044;8.716;2024-03-02T06:23:24;19.77;;;10.00;;
25609;SDS011;13479;49.044;8.716;2024-03-02T06:25:49;17.33;;;9.63;;
25609;SDS011;13479;49.044;8.716;2024-03-02T06:28:15;17.70;;;9.00;;
25609;SDS011;13479;49.044;8.716;2024-03-02T06:30:40;19.73;;;9.47;;
25609;SDS011;13479;49.044;8.716;2024-03-02T06:33:07;18.50;;;9.40;;
25609;SDS011;13479;49.044;8.716;2024-03-02T06:35:32;18.90;;;8.33;;
25609;SDS011;13479;49.044;8.716;2024-03-02T06:37:57;18.77;;;9.60;;
25609;SDS011;13479;49.044;8.716;2024-03-02T06:40:23;16.97;;;9.40;;
25609;SDS011;13479;49.044;8.716;2024-03-02T06:42:48;17.47;;;8.77;;
25609;SDS011;13479;49.044;8.716;2024-03-02T06:45:13;14.73;;;7.47;;
25609;SDS011;13479;49.044;8.716;2024-03-02T06:47:38;13.23;;;7.10;;
25609;SDS011;13479;49.044;8.716;2024-03-02T06:50:04;11.87;;;5.73;;
25609;SDS011;13479;49.044;8.716;2024-03-02T06:52:29;15.37;;;7.73;;
25609;SDS011;13479;49.044;8.716;2024-03-02T06:54:54;18.53;;;9.57;;
25609;SDS011;13479;49.044;8.716;2024-03-02T06:57:20;16.67;;;8.77;;
25609;SDS011;13479;49.044;8.716;2024-03-02T06:59:45;16.77;;;9.17;;
25609;SDS011;13479;49.044;8.716;2024-03-02T07:02:11;14.55;;;8.02;;
25609;SDS011;13479;49.044;8.716;2024-03-02T07:04:37;17.77;;;9.30;;
25609;SDS011;13479;49.044;8.716;2024-03-02T07:07:02;19.47;;;9.97;;
25609;SDS011;13479;49.044;8.716;2024-03-02T07:09:28;18.50;;;9.83;;
25609;SDS011;13479;49.044;8.716;2024-03-02T07:11:53;20.53;;;9.70;;
25609;SDS011;13479;49.044;8.716;2024-03-02T07:14:18;22.40;;;10.15;;
25609;SDS011;13479;49.044;8.716;2024-03-02T07:16:43;19.87;;;9.83;;
25609;SDS011;13479;49.044;8.716;2024-03-02T07:19:09;19.97;;;9.17;;
25609;SDS011;13479;49.044;8.716;2024-03-02T07:21:34;17.80;;;9.70;;
25609;SDS011;13479;49.044;8.716;2024-03-02T07:23:59;18.20;;;10.30;;
25609;SDS011;13479;49.044;8.716;2024-03-02T07:26:27;18.20;;;10.43;;
25609;SDS011;13479;49.044;8.716;2024-03-02T07:28:53;17.67;;;8.30;;
25609;SDS011;13479;49.044;8.716;2024-03-02T07:31:18;14.13;;;6.83;;
25609;SDS011;13479;49.044;8.716;2024-03-02T07:33:44;22.00;;;9.67;;
25609;SDS011;13479;49.044;8.716;2024-03-02T07:36:10;20.25;;;7.88;;
25609;SDS011;13479;49.044;8.716;2024-03-02T07:38:36;13.77;;;8.17;;
25609;SDS011;13479;49.044;8.716;2024-03-02T07:41:01;12.55;;;6.60;;
25609;SDS011;13479;49.044;8.716;2024-03-02T07:43:26;10.68;;;5.95;;
25609;SDS011;13479;49.044;8.716;2024-03-02T07:45:52;8.20;;;4.40;;
25609;SDS011;13479;49.044;8.716;2024-03-02T07:48:17;11.07;;;6.30;;
25609;SDS011;13479;49.044;8.716;2024-03-02T07:50:43;9.45;;;5.93;;
25609;SDS011;13479;49.044;8.716;2024-03-02T07:53:08;10.05;;;5.18;;
25609;SDS011;13479;49.044;8.716;2024-03-02T07:55:34;9.55;;;5.63;;
25609;SDS011;13479;49.044;8.716;2024-03-02T07:58:02;11.75;;;7.32;;
25609;SDS011;13479;49.044;8.716;2024-03-02T08:00:27;8.93;;;6.22;;
25609;SDS011;13479;49.044;8.716;2024-03-02T08:02:53;8.85;;;5.20;;
25609;SDS011;13479;49.044;8.716;2024-03-02T08:05:19;9.35;;;5.75;;
25609;SDS011;13479;49.044;8.716;2024-03-02T08:07:46;8.07;;;4.97;;
25609;SDS011;13479;49.044;8.716;2024-03-02T08:10:12;6.60;;;4.38;;
25609;SDS011;13479;49.044;8.716;2024-03-02T08:12:37;7.28;;;3.90;;
25609;SDS011;13479;49.044;8.716;2024-03-02T08:15:03;8.20;;;4.95;;
25609;SDS011;13479;49.044;8.716;2024-03-02T08:17:29;7.95;;;5.35;;
25609;SDS011;13479;49.044;8.716;2024-03-02T08:19:54;6.25;;;4.13;;
25609;SDS011;13479;49.044;8.716;2024-03-02T08:22:20;7.28;;;4.63;;
25609;SDS011;13479;49.044;8.716;2024-03-02T08:24:45;9.93;;;4.88;;
25609;SDS011;13479;49.044;8.716;2024-03-02T08:27:10;6.10;;;3.90;;
25609;SDS011;13479;49.044;8.716;2024-03-02T08:29:37;7.88;;;4.43;;
25609;SDS011;13479;49.044;8.716;2024-03-02T08:32:02;7.05;;;5.10;;
25609;SDS011;13479;49.044;8.716;2024-03-02T08:34:27;4.88;;;3.20;;
25609;SDS011;13479;49.044;8.716;2024-03-02T08:36:52;5.63;;;3.65;;
25609;SDS011;13479;49.044;8.716;2024-03-02T08:39:18;7.32;;;5.25;;
25609;SDS011;13479;49.044;8.716;2024-03-02T08:41:44;12.80;;;5.13;;
25609;SDS011;13479;49.044;8.716;2024-03-02T08:44:11;6.22;;;3.97;;
25609;SDS011;13479;49.044;8.716;2024-03-02T08:46:37;7.10;;;4.55;;
25609;SDS011;13479;49.044;8.716;2024-03-02T08:49:02;6.13;;;3.30;;
25609;SDS011;13479;49.044;8.716;2024-03-02T08:51:28;7.45;;;4.05;;
25609;SDS011;13479;49.044;8.716;2024-03-02T08:53:53;6.75;;;4.38;;
25609;SDS011;13479;49.044;8.716;2024-03-02T08:56:18;5.80;;;4.28;;
25609;SDS011;13479;49.044;8.716;2024-03-02T08:58:45;4.57;;;3.25;;
25609;SDS011;13479;49.044;8.716;2024-03-02T09:01:10;6.40;;;3.50;;
25609;SDS011;13479;49.044;8.716;2024-03-02T09:03:36;9.30;;;3.70;;
25609;SDS011;13479;49.044;8.716;2024-03-02T09:06:02;5.35;;;3.88;;
25609;SDS011;13479;49.044;8.716;2024-03-02T09:08:28;6.25;;;2.92;;
25609;SDS011;13479;49.044;8.716;2024-03-02T09:10:53;5.07;;;3.53;;
25609;SDS011;13479;49.044;8.716;2024-03-02T09:13:19;5.55;;;3.33;;
25609;SDS011;13479;49.044;8.716;2024-03-02T09:15:44;8.38;;;3.53;;
25609;SDS011;13479;49.044;8.716;2024-03-02T09:18:10;5.00;;;3.35;;
25609;SDS011;13479;49.044;8.716;2024-03-02T09:20:35;6.43;;;3.20;;
25609;SDS011;13479;49.044;8.716;2024-03-02T09:23:00;4.70;;;2.90;;
25609;SDS011;13479;49.044;8.716;2024-03-02T09:25:26;4.22;;;2.88;;
25609;SDS011;13479;49.044;8.716;2024-03-02T09:27:51;5.93;;;3.95;;
25609;SDS011;13479;49.044;8.716;2024-03-02T09:30:16;8.75;;;3.00;;
25609;SDS011;13479;49.044;8.716;2024-03-02T09:32:42;5.85;;;3.80;;
25609;SDS011;13479;49.044;8.716;2024-03-02T09:35:07;5.72;;;3.05;;
25609;SDS011;13479;49.044;8.716;2024-03-02T09:37:33;5.78;;;2.92;;
25609;SDS011;13479;49.044;8.716;2024-03-02T09:39:59;4.38;;;3.22;;
25609;SDS011;13479;49.044;8.716;2024-03-02T09:42:24;7.55;;;2.67;;
25609;SDS011;13479;49.044;8.716;2024-03-02T09:44:50;4.47;;;2.97;;
25609;SDS011;13479;49.044;8.716;2024-03-02T09:47:16;6.43;;;3.22;;
25609;SDS011;13479;49.044;8.716;2024-03-02T09:49:42;4.00;;;2.90;;
25609;SDS011;13479;49.044;8.716;2024-03-02T09:52:08;3.92;;;2.85;;
25609;SDS011;13479;49.044;8.716;2024-03-02T09:54:35;6.13;;;3.45;;
25609;SDS011;13479;49.044;8.716;2024-03-02T09:57:00;6.18;;;3.40;;
25609;SDS011;13479;49.044;8.716;2024-03-02T09:59:27;4.45;;;3.05;;
25609;SDS011;13479;49.044;8.716;2024-03-02T10:02:00;5.38;;;3.90;;
25609;SDS011;13479;49.044;8.716;2024-03-02T10:04:27;8.38;;;3.40;;
25609;SDS011;13479;49.044;8.716;2024-03-02T10:07:12;5.18;;;2.53;;
25609;SDS011;13479;49.044;8.716;2024-03-02T10:09:38;4.72;;;3.30;;
25609;SDS011;13479;49.044;8.716;2024-03-02T10:12:04;5.25;;;2.60;;
25609;SDS011;13479;49.044;8.716;2024-03-02T10:14:30;5.38;;;2.28;;
25609;SDS011;13479;49.044;8.716;2024-03-02T10:17:04;4.82;;;2.30;;
25609;SDS011;13479;49.044;8.716;2024-03-02T10:19:31;5.70;;;2.63;;
25609;SDS011;13479;49.044;8.716;2024-03-02T10:21:58;3.92;;;2.42;;
25609;SDS011;13479;49.044;8.716;2024-03-02T10:24:24;3.65;;;2.83;;
25609;SDS011;13479;49.044;8.716;2024-03-02T10:26:50;5.88;;;3.30;;
25609;SDS011;13479;49.044;8.716;2024-03-02T10:29:15;4.28;;;3.10;;
25609;SDS011;13479;49.044;8.716;2024-03-02T10:31:41;4.15;;;2.60;;
25609;SDS011;13479;49.044;8.716;2024-03-02T10:34:09;4.65;;;2.88;;
25609;SDS011;13479;49.044;8.716;2024-03-02T10:36:35;2.65;;;1.70;;
25609;SDS011;13479;49.044;8.716;2024-03-02T10:39:02;3.70;;;1.90;;
25609;SDS011;13479;49.044;8.716;2024-03-02T10:41:29;2.40;;;1.70;;
25609;SDS011;13479;49.044;8.716;2024-03-02T10:43:58;2.75;;;2.00;;
25609;SDS011;13479;49.044;8.716;2024-03-02T10:46:27;5.32;;;3.20;;
25609;SDS011;13479;49.044;8.716;2024-03-02T10:48:54;2.65;;;1.88;;
25609;SDS011;13479;49.044;8.716;2024-03-02T10:51:20;2.42;;;1.70;;
25609;SDS011;13479;49.044;8.716;2024-03-02T10:53:45;2.88;;;1.25;;
25609;SDS011;13479;49.044;8.716;2024-03-02T10:56:10;3.10;;;1.27;;
25609;SDS011;13479;49.044;8.716;2024-03-02T10:58:41;3.53;;;2.13;;
25609;SDS011;13479;49.044;8.716;2024-03-02T11:01:06;2.97;;;1.80;;
25609;SDS011;13479;49.044;8.716;2024-03-02T11:03:35;2.50;;;1.52;;
25609;SDS011;13479;49.044;8.716;2024-03-02T11:06:03;1.75;;;1.30;;
25609;SDS011;13479;49.044;8.716;2024-03-02T11:08:33;2.38;;;1.70;;
25609;SDS011;13479;49.044;8.716;2024-03-02T11:11:04;2.13;;;0.82;;
25609;SDS011;13479;49.044;8.716;2024-03-02T11:13:32;1.40;;;1.00;;
25609;SDS011;13479;49.044;8.716;2024-03-02T11:16:19;1.40;;;0.80;;
25609;SDS011;13479;49.044;8.716;2024-03-02T11:18:55;1.27;;;0.82;;
25609;SDS011;13479;49.044;8.716;2024-03-02T11:21:20;1.95;;;1.15;;
25609;SDS011;13479;49.044;8.716;2024-03-02T11:23:46;1.30;;;0.82;;
25609;SDS011;13479;49.044;8.716;2024-03-02T11:26:20;1.95;;;1.52;;
25609;SDS011;13479;49.044;8.716;2024-03-02T11:28:47;1.40;;;0.90;;
25609;SDS011;13479;49.044;8.716;2024-03-02T11:31:12;1.35;;;0.73;;
25609;SDS011;13479;49.044;8.716;2024-03-02T11:33:37;1.08;;;0.70;;
25609;SDS011;13479;49.044;8.716;2024-03-02T11:36:03;1.30;;;0.85;;
25609;SDS011;13479;49.044;8.716;2024-03-02T11:38:32;1.83;;;1.40;;
25609;SDS011;13479;49.044;8.716;2024-03-02T11:40:59;2.03;;;1.15;;
25609;SDS011;13479;49.044;8.716;2024-03-02T11:43:27;3.13;;;1.30;;
25609;SDS011;13479;49.044;8.716;2024-03-02T11:45:59;2.75;;;1.85;;
25609;SDS011;13479;49.044;8.716;2024-03-02T11:48:26;1.92;;;1.27;;
25609;SDS011;13479;49.044;8.716;2024-03-02T11:50:52;3.72;;;2.00;;
25609;SDS011;13479;49.044;8.716;2024-03-02T11:53:18;2.47;;;1.42;;
25609;SDS011;13479;49.044;8.716;2024-03-02T11:55:45;3.45;;;1.70;;
25609;SDS011;13479;49.044;8.716;2024-03-02T11:58:11;2.47;;;1.50;;
25609;SDS011;13479;49.044;8.716;2024-03-02T12:00:37;1.60;;;1.08;;
25609;SDS011;13479;49.044;8.716;2024-03-02T12:03:06;1.27;;;0.80;;
25609;SDS011;13479;49.044;8.716;2024-03-02T12:05:32;1.55;;;1.15;;
25609;SDS011;13479;49.044;8.716;2024-03-02T12:08:07;2.65;;;1.38;;
25609;SDS011;13479;49.044;8.716;2024-03-02T12:10:33;3.65;;;1.90;;
25609;SDS011;13479;49.044;8.716;2024-03-02T12:13:00;2.35;;;1.23;;
25609;SDS011;13479;49.044;8.716;2024-03-02T12:15:28;3.85;;;2.38;;
25609;SDS011;13479;49.044;8.716;2024-03-02T12:17:58;3.55;;;2.15;;
25609;SDS011;13479;49.044;8.716;2024-03-02T12:20:25;3.03;;;1.77;;
25609;SDS011;13479;49.044;8.716;2024-03-02T12:22:53;2.30;;;1.10;;
25609;SDS011;13479;49.044;8.716;2024-03-02T12:25:19;2.97;;;1.30;;
25609;SDS011;13479;49.044;8.716;2024-03-02T12:27:46;2.67;;;1.67;;
25609;SDS011;13479;49.044;8.716;2024-03-02T12:30:12;2.63;;;1.38;;
25609;SDS011;13479;49.044;8.716;2024-03-02T12:32:39;2.63;;;1.52;;
25609;SDS011;13479;49.044;8.716;2024-03-02T12:35:05;3.15;;;1.48;;
25609;SDS011;13479;49.044;8.716;2024-03-02T12:37:30;2.25;;;1.35;;
25609;SDS011;13479;49.044;8.716;2024-03-02T12:39:56;1.88;;;0.95;;
25609;SDS011;13479;49.044;8.716;2024-03-02T12:42:21;2.88;;;1.00;;
25609;SDS011;13479;49.044;8.716;2024-03-02T12:44:46;2.05;;;1.10;;
25609;SDS011;13479;49.044;8.716;2024-03-02T12:47:12;2.63;;;1.30;;
25609;SDS011;13479;49.044;8.716;2024-03-02T12:49:39;1.92;;;1.17;;
25609;SDS011;13479;49.044;8.716;2024-03-02T12:52:05;2.53;;;1.05;;
25609;SDS011;13479;49.044;8.716;2024-03-02T12:54:31;0.57;;;0.38;;
25609;SDS011;13479;49.044;8.716;2024-03-02T12:56:57;2.70;;;1.30;;
25609;SDS011;13479;49.044;8.716;2024-03-02T12:59:23;1.55;;;1.02;;
25609;SDS011;13479;49.044;8.716;2024-03-02T13:01:52;2.17;;;1.10;;
25609;SDS011;13479;49.044;8.716;2024-03-02T13:04:21;4.45;;;1.38;;
25609;SDS011;13479;49.044;8.716;2024-03-02T13:06:51;0.95;;;0.57;;
25609;SDS011;13479;49.044;8.716;2024-03-02T13:09:17;2.47;;;1.10;;
25609;SDS011;13479;49.044;8.716;2024-03-02T13:11:43;2.03;;;1.27;;
25609;SDS011;13479;49.044;8.716;2024-03-02T13:14:10;1.40;;;0.80;;
25609;SDS011;13479;49.044;8.716;2024-03-02T13:16:41;2.10;;;1.50;;
25609;SDS011;13479;49.044;8.716;2024-03-02T13:19:13;1.80;;;0.95;;
25609;SDS011;13479;49.044;8.716;2024-03-02T13:21:38;3.92;;;1.50;;
25609;SDS011;13479;49.044;8.716;2024-03-02T13:24:04;1.75;;;1.30;;
25609;SDS011;13479;49.044;8.716;2024-03-02T13:26:30;1.23;;;0.75;;
25609;SDS011;13479;49.044;8.716;2024-03-02T13:28:55;1.73;;;1.10;;
25609;SDS011;13479;49.044;8.716;2024-03-02T13:31:21;2.78;;;1.60;;
25609;SDS011;13479;49.044;8.716;2024-03-02T13:33:46;2.85;;;1.35;;
25609;SDS011;13479;49.044;8.716;2024-03-02T13:36:12;3.72;;;1.50;;
25609;SDS011;13479;49.044;8.716;2024-03-02T13:38:37;1.88;;;1.23;;
25609;SDS011;13479;49.044;8.716;2024-03-02T13:41:03;1.45;;;0.75;;
25609;SDS011;13479;49.044;8.716;2024-03-02T13:43:28;3.65;;;1.48;;
25609;SDS011;13479;49.044;8.716;2024-03-02T13:45:56;1.55;;;0.90;;
25609;SDS011;13479;49.044;8.716;2024-03-02T13:48:23;2.35;;;1.40;;
25609;SDS011;13479;49.044;8.716;2024-03-02T13:50:50;2.05;;;1.30;;
25609;SDS011;13479;49.044;8.716;2024-03-02T13:53:16;1.60;;;1.20;;
25609;SDS011;13479;49.044;8.716;2024-03-02T13:55:41;1.90;;;1.20;;
25609;SDS011;13479;49.044;8.716;2024-03-02T13:58:06;3.13;;;0.50;;
25609;SDS011;13479;49.044;8.716;2024-03-02T14:00:32;1.80;;;1.23;;
25609;SDS011;13479;49.044;8.716;2024-03-02T14:02:57;2.08;;;1.10;;
25609;SDS011;13479;49.044;8.716;2024-03-02T14:05:23;1.92;;;1.10;;
25609;SDS011;13479;49.044;8.716;2024-03-02T14:07:48;1.65;;;0.85;;
25609;SDS011;13479;49.044;8.716;2024-03-02T14:10:13;1.63;;;1.00;;
25609;SDS011;13479;49.044;8.716;2024-03-02T14:12:40;1.60;;;0.90;;
25609;SDS011;13479;49.044;8.716;2024-03-02T14:15:06;1.63;;;0.80;;
25609;SDS011;13479;49.044;8.716;2024-03-02T14:17:31;3.08;;;1.27;;
25609;SDS011;13479;49.044;8.716;2024-03-02T14:19:57;2.60;;;0.73;;
25609;SDS011;13479;49.044;8.716;2024-03-02T14:22:24;0.98;;;0.70;;
25609;SDS011;13479;49.044;8.716;2024-03-02T14:24:49;0.85;;;0.50;;
25609;SDS011;13479;49.044;8.716;2024-03-02T14:27:15;1.27;;;0.70;;
25609;SDS011;13479;49.044;8.716;2024-03-02T14:29:41;1.48;;;0.70;;
25609;SDS011;13479;49.044;8.716;2024-03-02T14:32:07;1.23;;;0.80;;
25609;SDS011;13479;49.044;8.716;2024-03-02T14:34:32;1.45;;;0.70;;
25609;SDS011;13479;49.044;8.716;2024-03-02T14:36:58;1.77;;;0.73;;
25609;SDS011;13479;49.044;8.716;2024-03-02T14:39:24;1.02;;;0.63;;
25609;SDS011;13479;49.044;8.716;2024-03-02T14:41:50;0.60;;;0.50;;
25609;SDS011;13479;49.044;8.716;2024-03-02T14:44:15;2.33;;;0.80;;
25609;SDS011;13479;49.044;8.716;2024-03-02T14:46:41;1.45;;;0.70;;
25609;SDS011;13479;49.044;8.716;2024-03-02T14:49:07;1.73;;;0.50;;
25609;SDS011;13479;49.044;8.716;2024-03-02T14:51:32;1.45;;;0.60;;
25609;SDS011;13479;49.044;8.716;2024-03-02T14:53:57;1.65;;;0.60;;
25609;SDS011;13479;49.044;8.716;2024-03-02T14:56:23;1.70;;;0.45;;
25609;SDS011;13479;49.044;8.716;2024-03-02T14:58:48;2.22;;;0.75;;
25609;SDS011;13479;49.044;8.716;2024-03-02T15:01:13;2.35;;;0.50;;
25609;SDS011;13479;49.044;8.716;2024-03-02T15:03:39;0.82;;;0.50;;
25609;SDS011;13479;49.044;8.716;2024-03-02T15:06:05;0.55;;;0.40;;
25609;SDS011;13479;49.044;8.716;2024-03-02T15:08:32;1.33;;;0.60;;
25609;SDS011;13479;49.044;8.716;2024-03-02T15:10:57;0.88;;;0.57;;
25609;SDS011;13479;49.044;8.716;2024-03-02T15:13:24;0.80;;;0.57;;
25609;SDS011;13479;49.044;8.716;2024-03-02T15:15:51;1.13;;;0.65;;
25609;SDS011;13479;49.044;8.716;2024-03-02T15:18:16;0.80;;;0.60;;
25609;SDS011;13479;49.044;8.716;2024-03-02T15:20:42;1.10;;;0.50;;
25609;SDS011;13479;49.044;8.716;2024-03-02T15:23:07;0.80;;;0.60;;
25609;SDS011;13479;49.044;8.716;2024-03-02T15:25:32;1.65;;;0.60;;
25609;SDS011;13479;49.044;8.716;2024-03-02T15:27:57;0.77;;;0.50;;
25609;SDS011;13479;49.044;8.716;2024-03-02T15:30:23;0.88;;;0.60;;
25609;SDS011;13479;49.044;8.716;2024-03-02T15:32:48;1.50;;;0.73;;
25609;SDS011;13479;49.044;8.716;2024-03-02T15:35:13;1.20;;;0.60;;
25609;SDS011;13479;49.044;8.716;2024-03-02T15:37:39;2.40;;;0.70;;
25609;SDS011;13479;49.044;8.716;2024-03-02T15:40:04;1.50;;;0.80;;
25609;SDS011;13479;49.044;8.716;2024-03-02T15:42:33;1.50;;;0.80;;
25609;SDS011;13479;49.044;8.716;2024-03-02T15:44:59;1.33;;;0.80;;
25609;SDS011;13479;49.044;8.716;2024-03-02T15:47:24;1.23;;;0.70;;
25609;SDS011;13479;49.044;8.716;2024-03-02T15:49:50;1.95;;;0.77;;
25609;SDS011;13479;49.044;8.716;2024-03-02T15:52:15;1.80;;;0.70;;
25609;SDS011;13479;49.044;8.716;2024-03-02T15:54:43;1.17;;;0.73;;
25609;SDS011;13479;49.044;8.716;2024-03-02T15:57:11;1.95;;;0.95;;
25609;SDS011;13479;49.044;8.716;2024-03-02T15:59:36;1.80;;;1.10;;
25609;SDS011;13479;49.044;8.716;2024-03-02T16:02:02;3.13;;;1.00;;
25609;SDS011;13479;49.044;8.716;2024-03-02T16:04:28;1.35;;;0.93;;
25609;SDS011;13479;49.044;8.716;2024-03-02T16:06:54;2.08;;;0.90;;
25609;SDS011;13479;49.044;8.716;2024-03-02T16:09:19;3.58;;;1.70;;
25609;SDS011;13479;49.044;8.716;2024-03-02T16:11:44;6.90;;;2.70;;
25609;SDS011;13479;49.044;8.716;2024-03-02T16:14:10;11.88;;;5.45;;
25609;SDS011;13479;49.044;8.716;2024-03-02T16:16:35;9.25;;;3.55;;
25609;SDS011;13479;49.044;8.716;2024-03-02T16:19:00;5.97;;;3.58;;
25609;SDS011;13479;49.044;8.716;2024-03-02T16:21:26;10.10;;;3.10;;
25609;SDS011;13479;49.044;8.716;2024-03-02T16:23:51;5.35;;;3.00;;
25609;SDS011;13479;49.044;8.716;2024-03-02T16:26:17;6.13;;;3.17;;
25609;SDS011;13479;49.044;8.716;2024-03-02T16:28:42;2.45;;;1.52;;
25609;SDS011;13479;49.044;8.716;2024-03-02T16:31:07;2.67;;;1.30;;
25609;SDS011;13479;49.044;8.716;2024-03-02T16:33:35;3.70;;;1.52;;
25609;SDS011;13479;49.044;8.716;2024-03-02T16:36:00;5.53;;;2.03;;
25609;SDS011;13479;49.044;8.716;2024-03-02T16:38:25;3.42;;;2.00;;
25609;SDS011;13479;49.044;8.716;2024-03-02T16:40:50;5.82;;;2.58;;
25609;SDS011;13479;49.044;8.716;2024-03-02T16:43:16;7.10;;;2.03;;
25609;SDS011;13479;49.044;8.716;2024-03-02T16:45:41;102.55;;;34.70;;
25609;SDS011;13479;49.044;8.716;2024-03-02T16:48:06;26.42;;;11.23;;
25609;SDS011;13479;49.044;8.716;2024-03-02T16:50:32;15.55;;;8.30;;
25609;SDS011;13479;49.044;8.716;2024-03-02T16:52:58;17.02;;;8.07;;
25609;SDS011;13479;49.044;8.716;2024-03-02T16:55:23;15.85;;;5.13;;
25609;SDS011;13479;49.044;8.716;2024-03-02T16:57:48;24.92;;;9.25;;
25609;SDS011;13479;49.044;8.716;2024-03-02T17:00:14;38.33;;;12.10;;
25609;SDS011;13479;49.044;8.716;2024-03-02T17:02:39;7.45;;;3.55;;
25609;SDS011;13479;49.044;8.716;2024-03-02T17:05:05;3.90;;;2.42;;
25609;SDS011;13479;49.044;8.716;2024-03-02T17:07:30;5.63;;;3.10;;
25609;SDS011;13479;49.044;8.716;2024-03-02T17:09:56;7.35;;;4.05;;
25609;SDS011;13479;49.044;8.716;2024-03-02T17:12:23;9.48;;;4.20;;
25609;SDS011;13479;49.044;8.716;2024-03-02T17:14:48;6.47;;;3.10;;
25609;SDS011;13479;49.044;8.716;2024-03-02T17:17:14;6.32;;;3.50;;
25609;SDS011;13479;49.044;8.716;2024-03-02T17:19:40;6.55;;;3.58;;
25609;SDS011;13479;49.044;8.716;2024-03-02T17:22:05;5.30;;;3.05;;
25609;SDS011;13479;49.044;8.716;2024-03-02T17:24:31;5.07;;;2.38;;
25609;SDS011;13479;49.044;8.716;2024-03-02T17:26:56;3.50;;;1.80;;
25609;SDS011;13479;49.044;8.716;2024-03-02T17:29:23;3.15;;;1.20;;
25609;SDS011;13479;49.044;8.716;2024-03-02T17:31:49;4.47;;;1.13;;
25609;SDS011;13479;49.044;8.716;2024-03-02T17:34:15;1.33;;;0.73;;
25609;SDS011;13479;49.044;8.716;2024-03-02T17:36:40;1.48;;;0.68;;
25609;SDS011;13479;49.044;8.716;2024-03-02T17:39:05;1.80;;;0.77;;
25609;SDS011;13479;49.044;8.716;2024-03-02T17:41:31;1.40;;;0.70;;
25609;SDS011;13479;49.044;8.716;2024-03-02T17:43:56;3.30;;;1.40;;
25609;SDS011;13479;49.044;8.716;2024-03-02T17:46:22;2.05;;;1.60;;
25609;SDS011;13479;49.044;8.716;2024-03-02T17:48:47;1.88;;;1.08;;
25609;SDS011;13479;49.044;8.716;2024-03-02T17:51:12;1.48;;;1.05;;
25609;SDS011;13479;49.044;8.716;2024-03-02T17:53:38;3.03;;;0.93;;
25609;SDS011;13479;49.044;8.716;2024-03-02T17:56:03;3.05;;;1.00;;
25609;SDS011;13479;49.044;8.716;2024-03-02T17:58:29;1.23;;;0.50;;
25609;SDS011;13479;49.044;8.716;2024-03-02T18:00:54;0.80;;;0.60;;
25609;SDS011;13479;49.044;8.716;2024-03-02T18:03:20;1.35;;;0.80;;
25609;SDS011;13479;49.044;8.716;2024-03-02T18:05:46;2.17;;;1.08;;
25609;SDS011;13479;49.044;8.716;2024-03-02T18:08:11;1.65;;;0.82;;
25609;SDS011;13479;49.044;8.716;2024-03-02T18:10:37;0.85;;;0.55;;
25609;SDS011;13479;49.044;8.716;2024-03-02T18:13:02;1.25;;;0.60;;
25609;SDS011;13479;49.044;8.716;2024-03-02T18:15:27;0.65;;;0.52;;
25609;SDS011;13479;49.044;8.716;2024-03-02T18:17:52;0.70;;;0.55;;
25609;SDS011;13479;49.044;8.716;2024-03-02T18:20:18;1.95;;;0.90;;
25609;SDS011;13479;49.044;8.716;2024-03-02T18:22:43;1.88;;;1.02;;
25609;SDS011;13479;49.044;8.716;2024-03-02T18:25:08;3.83;;;1.35;;
25609;SDS011;13479;49.044;8.716;2024-03-02T18:27:34;3.30;;;1.40;;
25609;SDS011;13479;49.044;8.716;2024-03-02T18:29:59;2.03;;;1.25;;
25609;SDS011;13479;49.044;8.716;2024-03-02T18:32:24;3.25;;;1.50;;
25609;SDS011;13479;49.044;8.716;2024-03-02T18:34:51;2.10;;;1.15;;
25609;SDS011;13479;49.044;8.716;2024-03-02T18:37:16;3.72;;;1.33;;
25609;SDS011;13479;49.044;8.716;2024-03-02T18:39:46;2.45;;;1.10;;
25609;SDS011;13479;49.044;8.716;2024-03-02T18:42:12;2.50;;;1.38;;
25609;SDS011;13479;49.044;8.716;2024-03-02T18:44:37;4.13;;;1.25;;
25609;SDS011;13479;49.044;8.716;2024-03-02T18:47:03;3.05;;;1.50;;
25609;SDS011;13479;49.044;8.716;2024-03-02T18:49:28;3.67;;;1.52;;
25609;SDS011;13479;49.044;8.716;2024-03-02T18:51:53;5.32;;;2.00;;
25609;SDS011;13479;49.044;8.716;2024-03-02T18:54:19;3.13;;;1.95;;
25609;SDS011;13479;49.044;8.716;2024-03-02T18:56:44;3.55;;;1.60;;
25609;SDS011;13479;49.044;8.716;2024-03-02T18:59:09;3.33;;;1.48;;
25609;SDS011;13479;49.044;8.716;2024-03-02T19:01:35;2.85;;;1.60;;
25609;SDS011;13479;49.044;8.716;2024-03-02T19:04:00;4.00;;;2.17;;
25609;SDS011;13479;49.044;8.716;2024-03-02T19:06:25;3.03;;;1.40;;
25609;SDS011;13479;49.044;8.716;2024-03-02T19:08:50;4.05;;;2.47;;
25609;SDS011;13479;49.044;8.716;2024-03-02T19:11:16;4.00;;;2.50;;
25609;SDS011;13479;49.044;8.716;2024-03-02T19:13:42;5.28;;;2.80;;
25609;SDS011;13479;49.044;8.716;2024-03-02T19:16:11;3.70;;;2.47;;
25609;SDS011;13479;49.044;8.716;2024-03-02T19:18:38;5.13;;;2.33;;
25609;SDS011;13479;49.044;8.716;2024-03-02T19:21:03;5.07;;;2.83;;
25609;SDS011;13479;49.044;8.716;2024-03-02T19:23:29;7.75;;;2.60;;
25609;SDS011;13479;49.044;8.716;2024-03-02T19:25:54;5.32;;;2.90;;
25609;SDS011;13479;49.044;8.716;2024-03-02T19:28:21;7.00;;;2.33;;
25609;SDS011;13479;49.044;8.716;2024-03-02T19:30:46;6.85;;;2.90;;
25609;SDS011;13479;49.044;8.716;2024-03-02T19:33:12;7.28;;;3.78;;
25609;SDS011;13479;49.044;8.716;2024-03-02T19:35:39;6.93;;;4.28;;
25609;SDS011;13479;49.044;8.716;2024-03-02T19:38:04;10.82;;;4.20;;